createdAt,value
2023-01-26T00:00:20.147Z,2.357788086
2023-01-26T00:01:20.654Z,2.327575684
2023-01-26T00:02:21.085Z,2.317504883
2023-01-26T00:03:21.502Z,2.28729248
2023-01-26T00:04:22.535Z,2.297363281
2023-01-26T00:05:23.029Z,2.257080078
2023-01-26T00:06:23.480Z,2.247009277
2023-01-26T00:07:23.864Z,2.226867676
2023-01-26T00:08:24.416Z,2.216796875
2023-01-26T00:09:24.830Z,2.216796875
2023-01-26T00:10:25.214Z,2.196655273
2023-01-26T00:11:26.369Z,2.196655273
2023-01-26T00:12:27.326Z,2.216796875
2023-01-26T00:13:27.864Z,2.247009277
2023-01-26T00:14:28.254Z,2.257080078
2023-01-26T00:15:28.745Z,2.247009277
2023-01-26T00:16:29.291Z,2.226867676
2023-01-26T00:17:29.668Z,2.226867676
2023-01-26T00:18:30.166Z,2.226867676
2023-01-26T00:19:30.612Z,2.226867676
2023-01-26T00:20:30.963Z,2.226867676
2023-01-26T00:21:31.597Z,2.216796875
2023-01-26T00:22:32.872Z,2.247009277
2023-01-26T00:23:33.273Z,2.257080078
2023-01-26T00:24:33.809Z,2.257080078
2023-01-26T00:25:34.196Z,2.247009277
2023-01-26T00:26:34.697Z,2.267150879
2023-01-26T00:27:35.117Z,2.267150879
2023-01-26T00:28:35.585Z,2.267150879
2023-01-26T00:29:37.006Z,2.327575684
2023-01-26T00:31:07.714Z,2.317504883
2023-01-26T00:32:08.727Z,2.297363281
2023-01-26T00:33:09.515Z,2.297363281
2023-01-26T00:34:10.059Z,2.297363281
2023-01-26T00:35:10.478Z,2.267150879
2023-01-26T00:36:10.994Z,2.28729248
2023-01-26T00:37:11.441Z,2.267150879
2023-01-26T00:38:11.785Z,2.267150879
2023-01-26T00:39:12.315Z,2.267150879
2023-01-26T00:40:13.098Z,2.28729248
2023-01-26T00:41:13.111Z,2.297363281
2023-01-26T00:42:13.576Z,2.297363281
2023-01-26T00:43:14.578Z,2.297363281
2023-01-26T00:44:15.119Z,2.297363281
2023-01-26T00:45:15.528Z,2.28729248
2023-01-26T00:46:16.020Z,2.28729248
2023-01-26T00:47:16.469Z,2.267150879
2023-01-26T00:48:16.823Z,2.257080078
2023-01-26T00:49:17.320Z,2.267150879
2023-01-26T00:50:17.745Z,2.28729248
2023-01-26T00:51:18.151Z,2.297363281
2023-01-26T00:52:18.582Z,2.317504883
2023-01-26T00:53:19.529Z,2.317504883
2023-01-26T00:54:20.013Z,2.317504883
2023-01-26T00:55:20.426Z,2.357788086
2023-01-26T00:56:20.921Z,2.327575684
2023-01-26T00:57:21.378Z,2.327575684
2023-01-26T00:58:21.756Z,2.317504883
2023-01-26T00:59:22.215Z,2.317504883
2023-01-26T01:00:22.611Z,2.317504883
2023-01-26T01:01:23.104Z,2.297363281
2023-01-26T01:02:23.771Z,2.267150879
2023-01-26T01:03:24.560Z,2.28729248
2023-01-26T01:04:25.093Z,2.267150879
2023-01-26T01:05:25.462Z,2.28729248
2023-01-26T01:06:25.948Z,2.297363281
2023-01-26T01:07:26.449Z,2.317504883
2023-01-26T01:08:26.847Z,2.317504883
2023-01-26T01:09:27.320Z,2.297363281
2023-01-26T01:10:27.749Z,2.317504883
2023-01-26T01:11:28.069Z,2.357788086
2023-01-26T01:12:28.564Z,2.357788086
2023-01-26T01:13:29.565Z,2.367858887
2023-01-26T01:14:30.121Z,2.327575684
2023-01-26T01:15:30.498Z,2.327575684
2023-01-26T01:16:30.963Z,2.317504883
2023-01-26T01:17:31.675Z,2.28729248
2023-01-26T01:18:31.905Z,2.267150879
2023-01-26T01:19:32.343Z,2.28729248
2023-01-26T01:20:32.768Z,2.28729248
2023-01-26T01:21:33.152Z,2.247009277
2023-01-26T01:22:33.739Z,2.226867676
2023-01-26T01:23:34.543Z,2.216796875
2023-01-26T01:24:35.073Z,2.196655273
2023-01-26T01:25:35.490Z,2.14630127
2023-01-26T01:26:36.363Z,2.116088867
2023-01-26T01:28:06.946Z,2.136230469
2023-01-26T01:29:07.390Z,2.176513672
2023-01-26T01:30:08.696Z,2.196655273
2023-01-26T01:31:09.139Z,2.216796875
2023-01-26T01:32:09.439Z,2.216796875
2023-01-26T01:33:40.562Z,2.226867676
2023-01-26T01:35:11.260Z,2.226867676
2023-01-26T01:36:11.699Z,2.247009277
2023-01-26T01:37:12.187Z,2.226867676
2023-01-26T01:38:12.575Z,2.247009277
2023-01-26T01:39:13.015Z,2.247009277
2023-01-26T01:40:13.618Z,2.247009277
2023-01-26T01:41:13.924Z,2.247009277
2023-01-26T01:42:14.437Z,2.257080078
2023-01-26T01:43:14.841Z,2.247009277
2023-01-26T01:44:15.885Z,2.247009277
2023-01-26T01:45:16.354Z,2.216796875
2023-01-26T01:46:16.798Z,2.186584473
2023-01-26T01:47:17.291Z,2.186584473
2023-01-26T01:48:17.676Z,2.176513672
2023-01-26T01:49:18.165Z,2.14630127
2023-01-26T01:50:18.632Z,2.14630127
2023-01-26T01:51:19.030Z,2.136230469
2023-01-26T01:52:19.515Z,2.136230469
2023-01-26T01:53:20.824Z,2.14630127
2023-01-26T01:54:21.234Z,2.136230469
2023-01-26T01:55:21.676Z,2.136230469
2023-01-26T01:56:22.162Z,2.136230469
2023-01-26T01:57:22.547Z,2.176513672
2023-01-26T01:58:23.593Z,2.186584473
2023-01-26T01:59:24.004Z,2.196655273
2023-01-26T02:00:24.503Z,2.196655273
2023-01-26T02:01:24.948Z,2.196655273
2023-01-26T02:02:25.369Z,2.226867676
2023-01-26T02:03:25.921Z,2.226867676
2023-01-26T02:04:27.049Z,2.226867676
2023-01-26T02:05:27.432Z,2.247009277
2023-01-26T02:06:27.979Z,2.257080078
2023-01-26T02:07:28.369Z,2.267150879
2023-01-26T02:08:28.881Z,2.257080078
2023-01-26T02:09:29.359Z,2.267150879
2023-01-26T02:10:29.739Z,2.257080078
2023-01-26T02:11:30.232Z,2.247009277
2023-01-26T02:12:30.676Z,2.226867676
2023-01-26T02:13:31.896Z,2.226867676
2023-01-26T02:14:32.354Z,2.216796875
2023-01-26T02:15:32.714Z,2.216796875
2023-01-26T02:16:33.299Z,2.216796875
2023-01-26T02:17:33.681Z,2.216796875
2023-01-26T02:18:34.202Z,2.216796875
2023-01-26T02:19:34.582Z,2.216796875
2023-01-26T02:20:34.973Z,2.247009277
2023-01-26T02:21:35.803Z,2.186584473
2023-01-26T02:23:06.455Z,2.136230469
2023-01-26T02:24:07.011Z,2.116088867
2023-01-26T02:25:07.356Z,2.116088867
2023-01-26T02:26:07.799Z,2.085876465
2023-01-26T02:27:08.195Z,2.075805664
2023-01-26T02:28:09.437Z,2.045593262
2023-01-26T02:29:09.880Z,2.065734863
2023-01-26T02:30:40.509Z,2.085876465
2023-01-26T02:32:11.785Z,2.106018066
2023-01-26T02:33:12.148Z,2.136230469
2023-01-26T02:34:12.724Z,2.116088867
2023-01-26T02:35:13.818Z,2.106018066
2023-01-26T02:36:14.221Z,2.116088867
2023-01-26T02:37:14.704Z,2.136230469
2023-01-26T02:38:15.104Z,2.176513672
2023-01-26T02:39:15.617Z,2.14630127
2023-01-26T02:40:16.079Z,2.186584473
2023-01-26T02:41:16.469Z,2.176513672
2023-01-26T02:42:17.004Z,2.14630127
2023-01-26T02:43:17.373Z,2.14630127
2023-01-26T02:44:18.620Z,2.14630127
2023-01-26T02:45:19.028Z,2.116088867
2023-01-26T02:46:19.610Z,2.136230469
2023-01-26T02:47:20.043Z,2.14630127
2023-01-26T02:48:20.386Z,2.14630127
2023-01-26T02:49:20.839Z,2.176513672
2023-01-26T02:50:21.287Z,2.14630127
2023-01-26T02:51:21.686Z,2.14630127
2023-01-26T02:52:22.283Z,2.14630127
2023-01-26T02:53:22.662Z,2.116088867
2023-01-26T02:54:24.104Z,2.116088867
2023-01-26T02:55:24.583Z,2.116088867
2023-01-26T02:56:24.983Z,2.106018066
2023-01-26T02:57:25.513Z,2.106018066
2023-01-26T02:58:26.522Z,2.106018066
2023-01-26T02:59:27.030Z,2.106018066
2023-01-26T03:00:28.331Z,2.085876465
2023-01-26T03:01:31.029Z,2.075805664
2023-01-26T03:02:29.322Z,2.045593262
2023-01-26T03:03:29.767Z,2.045593262
2023-01-26T03:04:30.807Z,2.035522461
2023-01-26T03:05:31.222Z,2.035522461
2023-01-26T03:06:31.708Z,2.035522461
2023-01-26T03:07:32.211Z,2.035522461
2023-01-26T03:08:32.699Z,2.045593262
2023-01-26T03:09:33.240Z,2.065734863
2023-01-26T03:10:33.618Z,2.045593262
2023-01-26T03:11:34.078Z,2.045593262
2023-01-26T03:12:34.649Z,2.075805664
2023-01-26T03:14:06.117Z,2.065734863
2023-01-26T03:15:06.539Z,2.085876465
2023-01-26T03:16:07.287Z,2.085876465
2023-01-26T03:17:07.437Z,2.075805664
2023-01-26T03:18:07.921Z,2.106018066
2023-01-26T03:19:08.491Z,2.106018066
2023-01-26T03:20:09.118Z,2.116088867
2023-01-26T03:21:09.162Z,2.136230469
2023-01-26T03:22:09.673Z,2.085876465
2023-01-26T03:23:10.259Z,2.075805664
2023-01-26T03:24:11.616Z,2.065734863
2023-01-26T03:25:12.013Z,2.065734863
2023-01-26T03:26:12.407Z,2.075805664
2023-01-26T03:27:12.874Z,2.075805664
2023-01-26T03:28:13.297Z,2.065734863
2023-01-26T03:29:13.823Z,2.065734863
2023-01-26T03:30:14.833Z,2.045593262
2023-01-26T03:31:15.254Z,2.045593262
2023-01-26T03:32:15.708Z,2.065734863
2023-01-26T03:33:16.112Z,2.075805664
2023-01-26T03:34:17.203Z,2.065734863
2023-01-26T03:35:17.532Z,2.075805664
2023-01-26T03:36:17.905Z,2.075805664
2023-01-26T03:37:18.336Z,2.065734863
2023-01-26T03:38:18.754Z,2.075805664
2023-01-26T03:39:19.157Z,2.085876465
2023-01-26T03:40:19.579Z,2.106018066
2023-01-26T03:41:19.994Z,2.085876465
2023-01-26T03:42:20.479Z,2.085876465
2023-01-26T03:43:20.908Z,2.085876465
2023-01-26T03:44:22.012Z,2.065734863
2023-01-26T03:45:22.453Z,2.035522461
2023-01-26T03:46:22.926Z,2.015380859
2023-01-26T03:47:23.350Z,1.995239258
2023-01-26T03:48:23.799Z,2.005310059
2023-01-26T03:49:24.316Z,2.005310059
2023-01-26T03:50:24.712Z,2.015380859
2023-01-26T03:51:25.133Z,2.045593262
2023-01-26T03:52:25.608Z,2.035522461
2023-01-26T03:53:26.085Z,2.005310059
2023-01-26T03:54:27.006Z,2.005310059
2023-01-26T03:55:27.489Z,1.954956055
2023-01-26T03:56:27.983Z,1.995239258
2023-01-26T03:57:28.379Z,1.995239258
2023-01-26T03:58:28.848Z,1.975097656
2023-01-26T03:59:29.280Z,1.954956055
2023-01-26T04:00:30.622Z,1.975097656
2023-01-26T04:01:31.077Z,1.975097656
2023-01-26T04:02:31.502Z,1.975097656
2023-01-26T04:03:32.079Z,1.995239258
2023-01-26T04:04:33.007Z,1.975097656
2023-01-26T04:05:33.450Z,1.995239258
2023-01-26T04:06:33.995Z,2.005310059
2023-01-26T04:08:04.841Z,2.035522461
2023-01-26T04:09:05.351Z,2.035522461
2023-01-26T04:10:05.693Z,2.015380859
2023-01-26T04:11:06.083Z,2.065734863
2023-01-26T04:12:06.608Z,2.075805664
2023-01-26T04:13:07.010Z,2.085876465
2023-01-26T04:14:08.387Z,2.075805664
2023-01-26T04:15:08.737Z,2.045593262
2023-01-26T04:16:09.159Z,1.995239258
2023-01-26T04:17:09.525Z,1.954956055
2023-01-26T04:18:09.994Z,1.924743652
2023-01-26T04:19:10.573Z,1.904602051
2023-01-26T04:20:11.381Z,1.89453125
2023-01-26T04:21:11.336Z,1.884460449
2023-01-26T04:22:11.752Z,1.884460449
2023-01-26T04:23:12.211Z,1.864318848
2023-01-26T04:24:16.290Z,1.884460449
2023-01-26T04:25:13.732Z,1.864318848
2023-01-26T04:26:14.194Z,1.864318848
2023-01-26T04:27:14.601Z,1.864318848
2023-01-26T04:28:15.492Z,1.884460449
2023-01-26T04:29:16.096Z,1.89453125
2023-01-26T04:30:16.526Z,1.884460449
2023-01-26T04:31:17.964Z,1.884460449
2023-01-26T04:32:18.346Z,1.864318848
2023-01-26T04:33:18.737Z,1.854248047
2023-01-26T04:34:19.910Z,1.834106445
2023-01-26T04:35:20.389Z,1.834106445
2023-01-26T04:36:20.799Z,1.813964844
2023-01-26T04:37:21.221Z,1.813964844
2023-01-26T04:38:21.606Z,1.773681641
2023-01-26T04:39:22.222Z,1.793823242
2023-01-26T04:40:23.331Z,1.793823242
2023-01-26T04:41:23.864Z,1.793823242
2023-01-26T04:42:24.289Z,1.793823242
2023-01-26T04:43:24.702Z,1.773681641
2023-01-26T04:44:25.820Z,1.793823242
2023-01-26T04:45:26.252Z,1.834106445
2023-01-26T04:46:26.800Z,1.834106445
2023-01-26T04:47:29.308Z,1.854248047
2023-01-26T04:48:27.692Z,1.834106445
2023-01-26T04:49:28.253Z,1.854248047
2023-01-26T04:50:28.758Z,1.854248047
2023-01-26T04:51:29.170Z,1.834106445
2023-01-26T04:52:29.629Z,1.824035645
2023-01-26T04:53:30.009Z,1.824035645
2023-01-26T04:54:31.335Z,1.824035645
2023-01-26T04:55:31.729Z,1.834106445
2023-01-26T04:56:32.160Z,1.854248047
2023-01-26T04:57:32.664Z,1.884460449
2023-01-26T04:59:04.220Z,1.904602051
2023-01-26T05:00:04.871Z,1.924743652
2023-01-26T05:01:05.251Z,1.934814453
2023-01-26T05:02:06.551Z,1.924743652
2023-01-26T05:03:08.947Z,1.924743652
2023-01-26T05:04:07.482Z,1.904602051
2023-01-26T05:05:08.519Z,1.884460449
2023-01-26T05:06:08.897Z,1.864318848
2023-01-26T05:07:09.413Z,1.884460449
2023-01-26T05:08:09.849Z,1.89453125
2023-01-26T05:09:40.520Z,1.89453125
2023-01-26T05:11:11.221Z,1.904602051
2023-01-26T05:12:11.572Z,1.924743652
2023-01-26T05:13:12.127Z,1.934814453
2023-01-26T05:14:12.518Z,1.934814453
2023-01-26T05:15:13.626Z,1.934814453
2023-01-26T05:16:14.122Z,1.954956055
2023-01-26T05:17:14.505Z,1.975097656
2023-01-26T05:18:14.934Z,1.954956055
2023-01-26T05:19:15.386Z,1.995239258
2023-01-26T05:20:15.903Z,2.005310059
2023-01-26T05:21:16.386Z,2.015380859
2023-01-26T05:22:16.744Z,2.035522461
2023-01-26T05:23:17.246Z,2.005310059
2023-01-26T05:24:17.664Z,2.005310059
2023-01-26T05:25:19.142Z,1.995239258
2023-01-26T05:26:19.626Z,1.975097656
2023-01-26T05:27:19.962Z,1.934814453
2023-01-26T05:28:20.361Z,1.89453125
2023-01-26T05:29:20.808Z,1.854248047
2023-01-26T05:30:21.209Z,1.813964844
2023-01-26T05:31:22.430Z,1.813964844
2023-01-26T05:32:22.718Z,1.773681641
2023-01-26T05:33:23.192Z,1.753540039
2023-01-26T05:34:23.619Z,1.753540039
2023-01-26T05:35:25.036Z,1.813964844
2023-01-26T05:36:25.693Z,1.813964844
2023-01-26T05:37:25.926Z,1.753540039
2023-01-26T05:38:26.356Z,1.723327637
2023-01-26T05:39:26.781Z,1.713256836
2023-01-26T05:40:27.175Z,1.683044434
2023-01-26T05:41:27.788Z,1.652832031
2023-01-26T05:42:28.115Z,1.63269043
2023-01-26T05:43:28.621Z,1.572265625
2023-01-26T05:44:29.847Z,1.531982422
2023-01-26T05:45:30.270Z,1.491699219
2023-01-26T05:46:31.379Z,1.461486816
2023-01-26T05:47:31.741Z,1.441345215
2023-01-26T05:48:32.121Z,1.431274414
2023-01-26T05:49:32.550Z,1.431274414
2023-01-26T05:51:04.106Z,1.431274414
2023-01-26T05:52:04.191Z,1.441345215
2023-01-26T05:53:04.573Z,1.441345215
2023-01-26T05:54:04.968Z,1.441345215
2023-01-26T05:55:06.143Z,1.461486816
2023-01-26T05:56:06.514Z,1.491699219
2023-01-26T05:57:07.015Z,1.491699219
2023-01-26T05:58:07.434Z,1.50177002
2023-01-26T05:59:07.852Z,1.521911621
2023-01-26T06:00:08.635Z,1.542053223
2023-01-26T06:01:08.742Z,1.542053223
2023-01-26T06:02:09.300Z,1.562194824
2023-01-26T06:03:09.663Z,1.562194824
2023-01-26T06:04:10.126Z,1.542053223
2023-01-26T06:05:11.138Z,1.531982422
2023-01-26T06:06:11.544Z,1.50177002
2023-01-26T06:07:12.101Z,1.471557617
2023-01-26T06:08:12.549Z,1.441345215
2023-01-26T06:09:12.989Z,1.441345215
2023-01-26T06:10:13.867Z,1.441345215
2023-01-26T06:11:13.880Z,1.461486816
2023-01-26T06:12:14.347Z,1.461486816
2023-01-26T06:13:14.720Z,1.461486816
2023-01-26T06:14:15.158Z,1.461486816
2023-01-26T06:15:16.581Z,1.471557617
2023-01-26T06:16:16.991Z,1.50177002
2023-01-26T06:17:17.508Z,1.491699219
2023-01-26T06:18:17.950Z,1.50177002
2023-01-26T06:19:18.369Z,1.521911621
2023-01-26T06:20:18.908Z,1.542053223
2023-01-26T06:21:19.338Z,1.521911621
2023-01-26T06:22:20.120Z,1.531982422
2023-01-26T06:23:20.271Z,1.572265625
2023-01-26T06:24:20.786Z,1.652832031
2023-01-26T06:25:22.164Z,1.672973633
2023-01-26T06:26:22.602Z,1.683044434
2023-01-26T06:27:23.005Z,1.683044434
2023-01-26T06:28:23.457Z,1.683044434
2023-01-26T06:29:23.867Z,1.672973633
2023-01-26T06:30:24.355Z,1.683044434
2023-01-26T06:31:25.644Z,1.672973633
2023-01-26T06:32:26.044Z,1.672973633
2023-01-26T06:33:26.505Z,1.672973633
2023-01-26T06:34:26.878Z,1.63269043
2023-01-26T06:35:28.115Z,1.602478027
2023-01-26T06:36:28.540Z,1.602478027
2023-01-26T06:37:29.124Z,1.562194824
2023-01-26T06:38:29.456Z,1.542053223
2023-01-26T06:39:29.849Z,1.531982422
2023-01-26T06:40:30.352Z,1.521911621
2023-01-26T06:41:30.831Z,1.521911621
2023-01-26T06:42:31.310Z,1.50177002
2023-01-26T06:43:31.743Z,1.521911621
2023-01-26T06:44:32.679Z,1.562194824
2023-01-26T06:46:04.271Z,1.602478027
2023-01-26T06:47:04.682Z,1.602478027
2023-01-26T06:48:05.267Z,1.572265625
2023-01-26T06:49:05.673Z,1.562194824
2023-01-26T06:50:06.107Z,1.572265625
2023-01-26T06:51:06.589Z,1.572265625
2023-01-26T06:52:07.025Z,1.562194824
2023-01-26T06:53:07.675Z,1.562194824
2023-01-26T06:54:07.959Z,1.531982422
2023-01-26T06:55:09.337Z,1.542053223
2023-01-26T06:56:09.756Z,1.50177002
2023-01-26T06:57:10.417Z,1.50177002
2023-01-26T06:58:10.934Z,1.50177002
2023-01-26T06:59:11.342Z,1.50177002
2023-01-26T07:00:12.133Z,1.531982422
2023-01-26T07:01:12.339Z,1.542053223
2023-01-26T07:02:12.769Z,1.542053223
2023-01-26T07:03:13.243Z,1.562194824
2023-01-26T07:04:13.637Z,1.562194824
2023-01-26T07:05:14.803Z,1.602478027
2023-01-26T07:06:15.195Z,1.612548828
2023-01-26T07:07:15.606Z,1.64276123
2023-01-26T07:08:16.253Z,1.652832031
2023-01-26T07:09:16.565Z,1.672973633
2023-01-26T07:10:17.911Z,1.713256836
2023-01-26T07:11:18.351Z,1.723327637
2023-01-26T07:12:18.755Z,1.773681641
2023-01-26T07:13:19.320Z,1.773681641
2023-01-26T07:14:19.716Z,1.743469238
2023-01-26T07:15:20.167Z,1.743469238
2023-01-26T07:16:21.543Z,1.713256836
2023-01-26T07:17:21.890Z,1.703186035
2023-01-26T07:18:22.394Z,1.703186035
2023-01-26T07:19:22.853Z,1.652832031
2023-01-26T07:20:23.288Z,1.652832031
2023-01-26T07:21:23.744Z,1.64276123
2023-01-26T07:22:24.139Z,1.64276123
2023-01-26T07:23:24.776Z,1.652832031
2023-01-26T07:24:25.167Z,1.652832031
2023-01-26T07:25:26.366Z,1.672973633
2023-01-26T07:26:26.789Z,1.703186035
2023-01-26T07:27:27.246Z,1.713256836
2023-01-26T07:28:27.739Z,1.753540039
2023-01-26T07:29:28.164Z,1.753540039
2023-01-26T07:30:28.741Z,1.813964844
2023-01-26T07:31:29.849Z,1.813964844
2023-01-26T07:32:30.223Z,1.813964844
2023-01-26T07:33:30.747Z,1.793823242
2023-01-26T07:34:31.128Z,1.824035645
2023-01-26T07:35:32.946Z,1.793823242
2023-01-26T07:37:03.600Z,1.793823242
2023-01-26T07:38:04.006Z,1.723327637
2023-01-26T07:39:06.475Z,1.683044434
2023-01-26T07:40:05.498Z,1.652832031
2023-01-26T07:41:06.088Z,1.63269043
2023-01-26T07:42:06.442Z,1.63269043
2023-01-26T07:43:06.922Z,1.64276123
2023-01-26T07:44:07.393Z,1.602478027
2023-01-26T07:45:07.742Z,1.542053223
2023-01-26T07:46:09.255Z,1.521911621
2023-01-26T07:47:09.543Z,1.50177002
2023-01-26T07:48:10.035Z,1.471557617
2023-01-26T07:49:10.738Z,1.441345215
2023-01-26T07:50:11.338Z,1.441345215
2023-01-26T07:51:11.647Z,1.441345215
2023-01-26T07:52:12.039Z,1.461486816
2023-01-26T07:53:12.539Z,1.491699219
2023-01-26T07:54:13.045Z,1.461486816
2023-01-26T07:55:13.351Z,1.471557617
2023-01-26T07:56:14.591Z,1.431274414
2023-01-26T07:57:15.021Z,1.431274414
2023-01-26T07:58:15.552Z,1.431274414
2023-01-26T07:59:15.999Z,1.421203613
2023-01-26T08:00:16.370Z,1.431274414
2023-01-26T08:01:16.859Z,1.441345215
2023-01-26T08:02:18.018Z,1.491699219
2023-01-26T08:03:18.510Z,1.531982422
2023-01-26T08:04:19.071Z,1.562194824
2023-01-26T08:05:19.443Z,1.562194824
2023-01-26T08:06:19.975Z,1.562194824
2023-01-26T08:07:20.365Z,1.572265625
2023-01-26T08:08:21.808Z,1.572265625
2023-01-26T08:09:22.380Z,1.602478027
2023-01-26T08:10:22.711Z,1.602478027
2023-01-26T08:11:23.125Z,1.612548828
2023-01-26T08:12:23.527Z,1.612548828
2023-01-26T08:13:34.604Z,1.612548828
2023-01-26T08:14:24.412Z,1.572265625
2023-01-26T08:15:25.505Z,1.572265625
2023-01-26T08:16:27.013Z,1.612548828
2023-01-26T08:17:27.344Z,1.612548828
2023-01-26T08:18:27.756Z,1.612548828
2023-01-26T08:19:28.360Z,1.612548828
2023-01-26T08:20:28.805Z,1.63269043
2023-01-26T08:21:29.315Z,1.652832031
2023-01-26T08:22:29.690Z,1.652832031
2023-01-26T08:23:30.054Z,1.683044434
2023-01-26T08:24:30.561Z,1.703186035
2023-01-26T08:25:32.337Z,1.703186035
2023-01-26T08:27:03.026Z,1.703186035
2023-01-26T08:28:03.390Z,1.672973633
2023-01-26T08:29:03.923Z,1.64276123
2023-01-26T08:30:04.350Z,1.612548828
2023-01-26T08:31:04.842Z,1.612548828
2023-01-26T08:32:06.269Z,1.612548828
2023-01-26T08:33:06.556Z,1.612548828
2023-01-26T08:34:06.917Z,1.63269043
2023-01-26T08:35:07.471Z,1.63269043
2023-01-26T08:36:08.496Z,1.672973633
2023-01-26T08:37:09.050Z,1.683044434
2023-01-26T08:38:09.437Z,1.703186035
2023-01-26T08:39:09.908Z,1.703186035
2023-01-26T08:40:10.949Z,1.743469238
2023-01-26T08:41:11.036Z,1.773681641
2023-01-26T08:42:11.472Z,1.773681641
2023-01-26T08:43:11.815Z,1.793823242
2023-01-26T08:44:12.219Z,1.813964844
2023-01-26T08:45:12.631Z,1.813964844
2023-01-26T08:46:14.073Z,1.824035645
2023-01-26T08:47:14.502Z,1.834106445
2023-01-26T08:48:14.909Z,1.834106445
2023-01-26T08:49:15.338Z,1.824035645
2023-01-26T08:50:16.797Z,1.824035645
2023-01-26T08:51:17.252Z,1.793823242
2023-01-26T08:52:17.832Z,1.753540039
2023-01-26T08:53:18.210Z,1.753540039
2023-01-26T08:54:18.750Z,1.723327637
2023-01-26T08:55:19.221Z,1.713256836
2023-01-26T08:56:20.561Z,1.683044434
2023-01-26T08:57:21.030Z,1.652832031
2023-01-26T08:58:21.443Z,1.612548828
2023-01-26T08:59:22.028Z,1.562194824
2023-01-26T09:00:22.423Z,1.562194824
2023-01-26T09:01:22.929Z,1.542053223
2023-01-26T09:02:24.123Z,1.542053223
2023-01-26T09:03:24.403Z,1.50177002
2023-01-26T09:04:25.000Z,1.491699219
2023-01-26T09:05:25.375Z,1.491699219
2023-01-26T09:06:26.571Z,1.521911621
2023-01-26T09:07:27.025Z,1.531982422
2023-01-26T09:08:27.464Z,1.542053223
2023-01-26T09:09:27.994Z,1.531982422
2023-01-26T09:10:28.420Z,1.521911621
2023-01-26T09:11:28.897Z,1.50177002
2023-01-26T09:12:29.362Z,1.521911621
2023-01-26T09:13:29.783Z,1.50177002
2023-01-26T09:14:30.780Z,1.50177002
2023-01-26T09:16:02.000Z,1.491699219
2023-01-26T09:17:03.134Z,1.491699219
2023-01-26T09:18:03.550Z,1.471557617
2023-01-26T09:19:04.141Z,1.491699219
2023-01-26T09:20:04.614Z,1.471557617
2023-01-26T09:21:05.200Z,1.491699219
2023-01-26T09:22:05.708Z,1.471557617
2023-01-26T09:23:06.118Z,1.531982422
2023-01-26T09:24:06.666Z,1.521911621
2023-01-26T09:25:07.037Z,1.521911621
2023-01-26T09:26:08.326Z,1.521911621
2023-01-26T09:27:08.737Z,1.491699219
2023-01-26T09:28:09.219Z,1.471557617
2023-01-26T09:29:09.669Z,1.471557617
2023-01-26T09:30:10.167Z,1.461486816
2023-01-26T09:31:11.054Z,1.471557617
2023-01-26T09:32:11.322Z,1.491699219
2023-01-26T09:33:11.787Z,1.50177002
2023-01-26T09:34:12.189Z,1.531982422
2023-01-26T09:35:14.682Z,1.562194824
2023-01-26T09:36:13.777Z,1.602478027
2023-01-26T09:37:14.169Z,1.63269043
2023-01-26T09:38:14.582Z,1.652832031
2023-01-26T09:39:15.050Z,1.672973633
2023-01-26T09:40:15.492Z,1.703186035
2023-01-26T09:41:15.967Z,1.683044434
2023-01-26T09:42:16.426Z,1.703186035
2023-01-26T09:43:16.879Z,1.713256836
2023-01-26T09:44:18.247Z,1.713256836
2023-01-26T09:45:18.644Z,1.713256836
2023-01-26T09:46:19.150Z,1.723327637
2023-01-26T09:47:20.485Z,1.753540039
2023-01-26T09:48:24.997Z,1.793823242
2023-01-26T09:49:22.325Z,1.824035645
2023-01-26T09:50:22.707Z,1.834106445
2023-01-26T09:51:23.206Z,1.854248047
2023-01-26T09:52:23.611Z,1.864318848
2023-01-26T09:53:24.040Z,1.864318848
2023-01-26T09:54:24.484Z,1.864318848
2023-01-26T09:55:24.880Z,1.834106445
2023-01-26T09:56:25.880Z,1.813964844
2023-01-26T09:57:26.304Z,1.824035645
2023-01-26T09:58:26.691Z,1.834106445
2023-01-26T09:59:27.212Z,1.834106445
2023-01-26T10:00:27.587Z,1.834106445
2023-01-26T10:01:28.144Z,1.834106445
2023-01-26T10:02:28.471Z,1.854248047
2023-01-26T10:03:28.865Z,1.854248047
2023-01-26T10:04:29.341Z,1.864318848
2023-01-26T10:05:30.152Z,1.884460449
2023-01-26T10:07:01.604Z,1.884460449
2023-01-26T10:08:01.926Z,1.884460449
2023-01-26T10:09:02.355Z,1.904602051
2023-01-26T10:10:02.722Z,1.904602051
2023-01-26T10:11:03.099Z,1.924743652
2023-01-26T10:12:04.505Z,1.954956055
2023-01-26T10:13:04.902Z,1.975097656
2023-01-26T10:14:05.402Z,2.015380859
2023-01-26T10:15:05.775Z,2.015380859
2023-01-26T10:16:06.252Z,2.045593262
2023-01-26T10:17:07.487Z,2.065734863
2023-01-26T10:18:07.858Z,2.075805664
2023-01-26T10:19:08.418Z,2.085876465
2023-01-26T10:20:08.778Z,2.106018066
2023-01-26T10:21:09.240Z,2.116088867
2023-01-26T10:22:09.625Z,2.136230469
2023-01-26T10:23:10.008Z,2.136230469
2023-01-26T10:24:10.628Z,2.116088867
2023-01-26T10:25:11.187Z,2.116088867
2023-01-26T10:26:11.413Z,2.116088867
2023-01-26T10:27:12.482Z,2.116088867
2023-01-26T10:28:12.869Z,2.116088867
2023-01-26T10:29:13.414Z,2.136230469
2023-01-26T10:30:13.761Z,2.14630127
2023-01-26T10:31:14.267Z,2.186584473
2023-01-26T10:32:15.542Z,2.176513672
2023-01-26T10:33:16.527Z,2.186584473
2023-01-26T10:34:16.365Z,2.176513672
2023-01-26T10:35:16.730Z,2.196655273
2023-01-26T10:36:17.110Z,2.186584473
2023-01-26T10:37:18.568Z,2.176513672
2023-01-26T10:38:18.962Z,2.136230469
2023-01-26T10:39:19.481Z,2.136230469
2023-01-26T10:40:19.880Z,2.136230469
2023-01-26T10:41:20.280Z,2.116088867
2023-01-26T10:42:20.796Z,2.106018066
2023-01-26T10:43:21.191Z,2.075805664
2023-01-26T10:44:21.660Z,2.045593262
2023-01-26T10:45:22.103Z,2.015380859
2023-01-26T10:46:22.541Z,2.005310059
2023-01-26T10:47:23.508Z,2.005310059
2023-01-26T10:48:23.913Z,2.005310059
2023-01-26T10:49:24.374Z,1.995239258
2023-01-26T10:50:24.737Z,2.005310059
2023-01-26T10:51:25.134Z,2.005310059
2023-01-26T10:52:25.647Z,2.005310059
2023-01-26T10:53:26.019Z,1.995239258
2023-01-26T10:54:26.540Z,2.015380859
2023-01-26T10:55:26.978Z,2.035522461
2023-01-26T10:56:27.389Z,2.015380859
2023-01-26T10:57:28.663Z,2.035522461
2023-01-26T10:58:29.024Z,2.075805664
2023-01-26T11:00:00.604Z,2.106018066
2023-01-26T11:01:00.948Z,2.085876465
2023-01-26T11:02:01.349Z,2.045593262
2023-01-26T11:03:02.813Z,2.045593262
2023-01-26T11:04:03.197Z,2.045593262